sensor_id;sensor_type;location;lat;lon;timestamp;P1;durP1;ratioP1;P2;durP2;ratioP2
55539;SDS011;41384;51.418;7.286;2022-07-25T00:00:33;6.70;;;4.47;;
55539;SDS011;41384;51.418;7.286;2022-07-25T00:02:59;5.60;;;4.80;;
55539;SDS011;41384;51.418;7.286;2022-07-25T00:05:24;4.97;;;4.47;;
55539;SDS011;41384;51.418;7.286;2022-07-25T00:07:49;5.65;;;4.68;;
55539;SDS011;41384;51.418;7.286;2022-07-25T00:10:15;7.13;;;4.68;;
55539;SDS011;41384;51.418;7.286;2022-07-25T00:12:40;6.13;;;4.82;;
55539;SDS011;41384;51.418;7.286;2022-07-25T00:15:06;4.95;;;4.45;;
55539;SDS011;41384;51.418;7.286;2022-07-25T00:17:32;5.85;;;4.50;;
55539;SDS011;41384;51.418;7.286;2022-07-25T00:19:57;5.45;;;4.68;;
55539;SDS011;41384;51.418;7.286;2022-07-25T00:22:22;8.52;;;5.28;;
55539;SDS011;41384;51.418;7.286;2022-07-25T00:24:48;6.38;;;4.70;;
55539;SDS011;41384;51.418;7.286;2022-07-25T00:27:13;6.25;;;4.90;;
55539;SDS011;41384;51.418;7.286;2022-07-25T00:29:38;6.20;;;4.68;;
55539;SDS011;41384;51.418;7.286;2022-07-25T00:32:04;5.15;;;4.15;;
55539;SDS011;41384;51.418;7.286;2022-07-25T00:34:30;5.38;;;4.43;;
55539;SDS011;41384;51.418;7.286;2022-07-25T00:36:55;7.68;;;5.15;;
55539;SDS011;41384;51.418;7.286;2022-07-25T00:39:20;5.82;;;4.80;;
55539;SDS011;41384;51.418;7.286;2022-07-25T00:41:46;6.28;;;5.22;;
55539;SDS011;41384;51.418;7.286;2022-07-25T00:44:24;5.47;;;4.50;;
55539;SDS011;41384;51.418;7.286;2022-07-25T00:46:50;7.15;;;4.85;;
55539;SDS011;41384;51.418;7.286;2022-07-25T00:49:17;5.18;;;4.65;;
55539;SDS011;41384;51.418;7.286;2022-07-25T00:51:42;5.93;;;4.85;;
55539;SDS011;41384;51.418;7.286;2022-07-25T00:54:08;5.38;;;4.60;;
55539;SDS011;41384;51.418;7.286;2022-07-25T00:56:34;5.65;;;4.95;;
55539;SDS011;41384;51.418;7.286;2022-07-25T00:59:00;6.95;;;4.88;;
55539;SDS011;41384;51.418;7.286;2022-07-25T01:01:25;5.20;;;4.68;;
55539;SDS011;41384;51.418;7.286;2022-07-25T01:03:50;7.32;;;4.75;;
55539;SDS011;41384;51.418;7.286;2022-07-25T01:06:16;6.10;;;4.82;;
55539;SDS011;41384;51.418;7.286;2022-07-25T01:08:41;6.47;;;4.43;;
55539;SDS011;41384;51.418;7.286;2022-07-25T01:11:07;7.32;;;4.97;;
55539;SDS011;41384;51.418;7.286;2022-07-25T01:13:33;5.97;;;4.18;;
55539;SDS011;41384;51.418;7.286;2022-07-25T01:15:58;5.30;;;4.60;;
55539;SDS011;41384;51.418;7.286;2022-07-25T01:18:23;6.65;;;5.30;;
55539;SDS011;41384;51.418;7.286;2022-07-25T01:20:49;5.93;;;4.53;;
55539;SDS011;41384;51.418;7.286;2022-07-25T01:23:14;4.90;;;4.40;;
55539;SDS011;41384;51.418;7.286;2022-07-25T01:25:40;6.38;;;4.90;;
55539;SDS011;41384;51.418;7.286;2022-07-25T01:28:05;5.35;;;4.65;;
55539;SDS011;41384;51.418;7.286;2022-07-25T01:30:30;4.75;;;4.25;;
55539;SDS011;41384;51.418;7.286;2022-07-25T01:32:56;8.80;;;4.90;;
55539;SDS011;41384;51.418;7.286;2022-07-25T01:35:21;6.57;;;4.95;;
55539;SDS011;41384;51.418;7.286;2022-07-25T01:37:46;8.38;;;4.80;;
55539;SDS011;41384;51.418;7.286;2022-07-25T01:40:12;6.72;;;4.63;;
55539;SDS011;41384;51.418;7.286;2022-07-25T01:42:38;5.13;;;4.63;;
55539;SDS011;41384;51.418;7.286;2022-07-25T01:45:03;6.35;;;4.97;;
55539;SDS011;41384;51.418;7.286;2022-07-25T01:47:29;6.45;;;5.00;;
55539;SDS011;41384;51.418;7.286;2022-07-25T01:49:54;5.80;;;4.60;;
55539;SDS011;41384;51.418;7.286;2022-07-25T01:52:19;5.75;;;4.90;;
55539;SDS011;41384;51.418;7.286;2022-07-25T01:54:45;5.53;;;4.90;;
55539;SDS011;41384;51.418;7.286;2022-07-25T01:57:10;6.88;;;4.82;;
55539;SDS011;41384;51.418;7.286;2022-07-25T01:59:36;5.95;;;4.63;;
55539;SDS011;41384;51.418;7.286;2022-07-25T02:02:03;7.15;;;4.68;;
55539;SDS011;41384;51.418;7.286;2022-07-25T02:04:29;5.93;;;4.72;;
55539;SDS011;41384;51.418;7.286;2022-07-25T02:06:55;7.20;;;4.60;;
55539;SDS011;41384;51.418;7.286;2022-07-25T02:09:21;4.68;;;4.18;;
55539;SDS011;41384;51.418;7.286;2022-07-25T02:11:46;5.20;;;4.68;;
55539;SDS011;41384;51.418;7.286;2022-07-25T02:14:12;7.47;;;4.68;;
55539;SDS011;41384;51.418;7.286;2022-07-25T02:16:37;4.88;;;4.32;;
55539;SDS011;41384;51.418;7.286;2022-07-25T02:19:02;6.95;;;5.38;;
55539;SDS011;41384;51.418;7.286;2022-07-25T02:21:28;6.80;;;4.88;;
55539;SDS011;41384;51.418;7.286;2022-07-25T02:23:53;7.15;;;4.65;;
55539;SDS011;41384;51.418;7.286;2022-07-25T02:26:18;7.45;;;5.10;;
55539;SDS011;41384;51.418;7.286;2022-07-25T02:28:44;5.53;;;4.80;;
55539;SDS011;41384;51.418;7.286;2022-07-25T02:31:09;6.82;;;4.85;;
55539;SDS011;41384;51.418;7.286;2022-07-25T02:33:34;6.78;;;4.55;;
55539;SDS011;41384;51.418;7.286;2022-07-25T02:36:00;7.13;;;4.70;;
55539;SDS011;41384;51.418;7.286;2022-07-25T02:38:25;5.30;;;4.38;;
55539;SDS011;41384;51.418;7.286;2022-07-25T02:40:51;4.95;;;4.45;;
55539;SDS011;41384;51.418;7.286;2022-07-25T02:43:17;5.45;;;4.60;;
55539;SDS011;41384;51.418;7.286;2022-07-25T02:45:44;9.00;;;4.90;;
55539;SDS011;41384;51.418;7.286;2022-07-25T02:48:09;6.53;;;4.53;;
55539;SDS011;41384;51.418;7.286;2022-07-25T02:50:35;5.45;;;4.57;;
55539;SDS011;41384;51.418;7.286;2022-07-25T02:53:01;7.05;;;4.55;;
55539;SDS011;41384;51.418;7.286;2022-07-25T02:55:26;5.32;;;4.53;;
55539;SDS011;41384;51.418;7.286;2022-07-25T02:57:52;5.25;;;4.57;;
55539;SDS011;41384;51.418;7.286;2022-07-25T03:00:17;5.90;;;5.00;;
55539;SDS011;41384;51.418;7.286;2022-07-25T03:02:43;6.75;;;4.93;;
55539;SDS011;41384;51.418;7.286;2022-07-25T03:05:09;8.43;;;5.00;;
55539;SDS011;41384;51.418;7.286;2022-07-25T03:07:36;6.93;;;5.20;;
55539;SDS011;41384;51.418;7.286;2022-07-25T03:10:02;5.80;;;4.75;;
55539;SDS011;41384;51.418;7.286;2022-07-25T03:12:29;6.35;;;4.40;;
55539;SDS011;41384;51.418;7.286;2022-07-25T03:14:56;6.55;;;4.90;;
55539;SDS011;41384;51.418;7.286;2022-07-25T03:17:22;6.35;;;4.60;;
55539;SDS011;41384;51.418;7.286;2022-07-25T03:19:47;4.90;;;4.38;;
55539;SDS011;41384;51.418;7.286;2022-07-25T03:22:12;5.03;;;4.43;;
55539;SDS011;41384;51.418;7.286;2022-07-25T03:24:38;6.43;;;4.57;;
55539;SDS011;41384;51.418;7.286;2022-07-25T03:27:03;5.38;;;4.45;;
55539;SDS011;41384;51.418;7.286;2022-07-25T03:29:28;6.28;;;4.38;;
55539;SDS011;41384;51.418;7.286;2022-07-25T03:31:54;7.70;;;4.65;;
55539;SDS011;41384;51.418;7.286;2022-07-25T03:34:19;7.25;;;4.63;;
55539;SDS011;41384;51.418;7.286;2022-07-25T03:36:45;6.22;;;4.20;;
55539;SDS011;41384;51.418;7.286;2022-07-25T03:39:10;6.93;;;4.53;;
55539;SDS011;41384;51.418;7.286;2022-07-25T03:41:35;6.57;;;4.45;;
55539;SDS011;41384;51.418;7.286;2022-07-25T03:44:01;6.00;;;5.15;;
55539;SDS011;41384;51.418;7.286;2022-07-25T03:46:26;4.82;;;3.92;;
55539;SDS011;41384;51.418;7.286;2022-07-25T03:48:51;5.85;;;4.70;;
55539;SDS011;41384;51.418;7.286;2022-07-25T03:51:17;6.20;;;4.50;;
55539;SDS011;41384;51.418;7.286;2022-07-25T03:53:42;5.70;;;4.53;;
55539;SDS011;41384;51.418;7.286;2022-07-25T03:56:26;5.05;;;4.55;;
55539;SDS011;41384;51.418;7.286;2022-07-25T03:58:52;5.50;;;4.90;;
55539;SDS011;41384;51.418;7.286;2022-07-25T04:01:17;5.75;;;4.57;;
55539;SDS011;41384;51.418;7.286;2022-07-25T04:03:42;5.47;;;4.70;;
55539;SDS011;41384;51.418;7.286;2022-07-25T04:06:08;5.80;;;4.30;;
55539;SDS011;41384;51.418;7.286;2022-07-25T04:08:33;5.68;;;4.47;;
55539;SDS011;41384;51.418;7.286;2022-07-25T04:10:58;7.07;;;4.53;;
55539;SDS011;41384;51.418;7.286;2022-07-25T04:13:23;6.15;;;4.65;;
55539;SDS011;41384;51.418;7.286;2022-07-25T04:15:49;5.05;;;3.95;;
55539;SDS011;41384;51.418;7.286;2022-07-25T04:18:14;6.30;;;4.32;;
55539;SDS011;41384;51.418;7.286;2022-07-25T04:20:39;6.00;;;4.50;;
55539;SDS011;41384;51.418;7.286;2022-07-25T04:23:05;6.47;;;4.80;;
55539;SDS011;41384;51.418;7.286;2022-07-25T04:25:30;6.53;;;4.90;;
55539;SDS011;41384;51.418;7.286;2022-07-25T04:27:55;5.88;;;4.53;;
55539;SDS011;41384;51.418;7.286;2022-07-25T04:30:20;8.40;;;4.63;;
55539;SDS011;41384;51.418;7.286;2022-07-25T04:32:46;5.78;;;4.47;;
55539;SDS011;41384;51.418;7.286;2022-07-25T04:35:11;5.43;;;4.40;;
55539;SDS011;41384;51.418;7.286;2022-07-25T04:37:36;5.68;;;4.60;;
55539;SDS011;41384;51.418;7.286;2022-07-25T04:40:03;6.15;;;4.35;;
55539;SDS011;41384;51.418;7.286;2022-07-25T04:42:29;5.97;;;4.75;;
55539;SDS011;41384;51.418;7.286;2022-07-25T04:44:54;11.68;;;4.32;;
55539;SDS011;41384;51.418;7.286;2022-07-25T04:47:19;4.75;;;4.25;;
55539;SDS011;41384;51.418;7.286;2022-07-25T04:49:45;4.90;;;4.10;;
55539;SDS011;41384;51.418;7.286;2022-07-25T04:52:10;5.18;;;4.13;;
55539;SDS011;41384;51.418;7.286;2022-07-25T04:54:35;4.78;;;4.00;;
55539;SDS011;41384;51.418;7.286;2022-07-25T04:57:01;5.70;;;4.00;;
55539;SDS011;41384;51.418;7.286;2022-07-25T04:59:28;8.27;;;4.68;;
55539;SDS011;41384;51.418;7.286;2022-07-25T05:01:54;5.55;;;4.55;;
55539;SDS011;41384;51.418;7.286;2022-07-25T05:04:19;5.97;;;4.13;;
55539;SDS011;41384;51.418;7.286;2022-07-25T05:06:44;4.78;;;4.28;;
55539;SDS011;41384;51.418;7.286;2022-07-25T05:09:09;6.45;;;4.00;;
55539;SDS011;41384;51.418;7.286;2022-07-25T05:11:35;7.00;;;4.28;;
55539;SDS011;41384;51.418;7.286;2022-07-25T05:14:00;7.03;;;4.43;;
55539;SDS011;41384;51.418;7.286;2022-07-25T05:16:25;5.07;;;4.28;;
55539;SDS011;41384;51.418;7.286;2022-07-25T05:18:50;5.32;;;4.28;;
55539;SDS011;41384;51.418;7.286;2022-07-25T05:21:16;5.07;;;4.20;;
55539;SDS011;41384;51.418;7.286;2022-07-25T05:23:41;6.43;;;4.22;;
55539;SDS011;41384;51.418;7.286;2022-07-25T05:26:06;5.15;;;4.18;;
55539;SDS011;41384;51.418;7.286;2022-07-25T05:28:32;4.88;;;4.05;;
55539;SDS011;41384;51.418;7.286;2022-07-25T05:30:57;7.03;;;4.30;;
55539;SDS011;41384;51.418;7.286;2022-07-25T05:33:23;8.20;;;4.25;;
55539;SDS011;41384;51.418;7.286;2022-07-25T05:35:48;6.40;;;4.40;;
55539;SDS011;41384;51.418;7.286;2022-07-25T05:38:14;6.43;;;4.20;;
55539;SDS011;41384;51.418;7.286;2022-07-25T05:40:39;7.60;;;4.15;;
55539;SDS011;41384;51.418;7.286;2022-07-25T05:43:04;5.78;;;4.38;;
55539;SDS011;41384;51.418;7.286;2022-07-25T05:45:30;5.15;;;4.35;;
55539;SDS011;41384;51.418;7.286;2022-07-25T05:47:55;5.35;;;4.72;;
55539;SDS011;41384;51.418;7.286;2022-07-25T05:50:20;4.88;;;4.10;;
55539;SDS011;41384;51.418;7.286;2022-07-25T05:52:46;8.52;;;4.15;;
55539;SDS011;41384;51.418;7.286;2022-07-25T05:55:11;6.40;;;4.60;;
55539;SDS011;41384;51.418;7.286;2022-07-25T05:57:37;5.40;;;4.22;;
55539;SDS011;41384;51.418;7.286;2022-07-25T06:00:03;7.13;;;4.90;;
55539;SDS011;41384;51.418;7.286;2022-07-25T06:02:30;6.75;;;4.60;;
55539;SDS011;41384;51.418;7.286;2022-07-25T06:04:55;6.43;;;4.45;;
55539;SDS011;41384;51.418;7.286;2022-07-25T06:07:20;8.25;;;4.32;;
55539;SDS011;41384;51.418;7.286;2022-07-25T06:09:45;4.35;;;3.95;;
55539;SDS011;41384;51.418;7.286;2022-07-25T06:12:11;6.03;;;4.20;;
55539;SDS011;41384;51.418;7.286;2022-07-25T06:14:37;5.22;;;4.40;;
55539;SDS011;41384;51.418;7.286;2022-07-25T06:17:03;5.97;;;4.20;;
55539;SDS011;41384;51.418;7.286;2022-07-25T06:19:28;5.20;;;4.45;;
55539;SDS011;41384;51.418;7.286;2022-07-25T06:21:54;6.20;;;4.75;;
55539;SDS011;41384;51.418;7.286;2022-07-25T06:24:19;5.60;;;4.25;;
55539;SDS011;41384;51.418;7.286;2022-07-25T06:26:44;10.05;;;4.43;;
55539;SDS011;41384;51.418;7.286;2022-07-25T06:29:10;5.30;;;4.20;;
55539;SDS011;41384;51.418;7.286;2022-07-25T06:31:36;5.60;;;4.38;;
55539;SDS011;41384;51.418;7.286;2022-07-25T06:34:01;5.15;;;4.20;;
55539;SDS011;41384;51.418;7.286;2022-07-25T06:36:26;20.98;;;4.88;;
55539;SDS011;41384;51.418;7.286;2022-07-25T06:38:52;8.40;;;4.15;;
55539;SDS011;41384;51.418;7.286;2022-07-25T06:41:17;5.20;;;4.43;;
55539;SDS011;41384;51.418;7.286;2022-07-25T06:43:42;5.97;;;4.43;;
55539;SDS011;41384;51.418;7.286;2022-07-25T06:46:08;5.25;;;4.22;;
55539;SDS011;41384;51.418;7.286;2022-07-25T06:48:33;5.47;;;4.20;;
55539;SDS011;41384;51.418;7.286;2022-07-25T06:50:58;5.63;;;4.25;;
55539;SDS011;41384;51.418;7.286;2022-07-25T06:53:24;5.18;;;4.40;;
55539;SDS011;41384;51.418;7.286;2022-07-25T06:55:49;7.50;;;4.30;;
55539;SDS011;41384;51.418;7.286;2022-07-25T06:58:14;7.65;;;4.68;;
55539;SDS011;41384;51.418;7.286;2022-07-25T07:00:40;6.13;;;4.40;;
55539;SDS011;41384;51.418;7.286;2022-07-25T07:03:05;5.55;;;4.18;;
55539;SDS011;41384;51.418;7.286;2022-07-25T07:05:31;7.57;;;4.60;;
55539;SDS011;41384;51.418;7.286;2022-07-25T07:07:58;6.25;;;4.63;;
55539;SDS011;41384;51.418;7.286;2022-07-25T07:10:24;6.75;;;4.70;;
55539;SDS011;41384;51.418;7.286;2022-07-25T07:12:54;6.32;;;4.30;;
55539;SDS011;41384;51.418;7.286;2022-07-25T07:15:26;6.68;;;4.60;;
55539;SDS011;41384;51.418;7.286;2022-07-25T07:17:52;5.20;;;4.55;;
55539;SDS011;41384;51.418;7.286;2022-07-25T07:20:18;6.10;;;4.53;;
55539;SDS011;41384;51.418;7.286;2022-07-25T07:22:47;5.78;;;4.80;;
55539;SDS011;41384;51.418;7.286;2022-07-25T07:25:14;6.15;;;4.55;;
55539;SDS011;41384;51.418;7.286;2022-07-25T07:27:40;7.40;;;4.80;;
55539;SDS011;41384;51.418;7.286;2022-07-25T07:30:06;6.07;;;5.05;;
55539;SDS011;41384;51.418;7.286;2022-07-25T07:32:32;5.60;;;4.43;;
55539;SDS011;41384;51.418;7.286;2022-07-25T07:34:57;6.05;;;4.80;;
55539;SDS011;41384;51.418;7.286;2022-07-25T07:37:22;5.75;;;4.57;;
55539;SDS011;41384;51.418;7.286;2022-07-25T07:39:47;5.82;;;4.55;;
55539;SDS011;41384;51.418;7.286;2022-07-25T07:42:14;5.63;;;4.53;;
55539;SDS011;41384;51.418;7.286;2022-07-25T07:44:39;5.30;;;4.68;;
55539;SDS011;41384;51.418;7.286;2022-07-25T07:47:04;6.32;;;5.07;;
55539;SDS011;41384;51.418;7.286;2022-07-25T07:49:30;6.25;;;4.72;;
55539;SDS011;41384;51.418;7.286;2022-07-25T07:51:55;6.70;;;4.50;;
55539;SDS011;41384;51.418;7.286;2022-07-25T07:54:20;5.47;;;4.53;;
55539;SDS011;41384;51.418;7.286;2022-07-25T07:57:04;6.30;;;4.68;;
55539;SDS011;41384;51.418;7.286;2022-07-25T07:59:29;7.32;;;5.28;;
55539;SDS011;41384;51.418;7.286;2022-07-25T08:01:54;5.80;;;4.72;;
55539;SDS011;41384;51.418;7.286;2022-07-25T08:04:20;6.90;;;5.03;;
55539;SDS011;41384;51.418;7.286;2022-07-25T08:06:46;5.35;;;4.32;;
55539;SDS011;41384;51.418;7.286;2022-07-25T08:09:11;6.05;;;4.65;;
55539;SDS011;41384;51.418;7.286;2022-07-25T08:11:36;5.78;;;4.57;;
55539;SDS011;41384;51.418;7.286;2022-07-25T08:14:01;7.95;;;4.53;;
55539;SDS011;41384;51.418;7.286;2022-07-25T08:16:28;5.10;;;4.57;;
55539;SDS011;41384;51.418;7.286;2022-07-25T08:18:53;7.00;;;4.30;;
55539;SDS011;41384;51.418;7.286;2022-07-25T08:21:18;5.00;;;4.50;;
55539;SDS011;41384;51.418;7.286;2022-07-25T08:23:43;6.63;;;4.85;;
55539;SDS011;41384;51.418;7.286;2022-07-25T08:26:11;6.35;;;5.03;;
55539;SDS011;41384;51.418;7.286;2022-07-25T08:28:38;7.25;;;4.97;;
55539;SDS011;41384;51.418;7.286;2022-07-25T08:31:03;6.22;;;4.47;;
55539;SDS011;41384;51.418;7.286;2022-07-25T08:33:29;5.80;;;4.78;;
55539;SDS011;41384;51.418;7.286;2022-07-25T08:35:55;6.18;;;4.50;;
55539;SDS011;41384;51.418;7.286;2022-07-25T08:38:23;6.13;;;4.40;;
55539;SDS011;41384;51.418;7.286;2022-07-25T08:40:49;5.90;;;4.22;;
55539;SDS011;41384;51.418;7.286;2022-07-25T08:43:15;6.65;;;4.60;;
55539;SDS011;41384;51.418;7.286;2022-07-25T08:45:50;6.78;;;4.63;;
55539;SDS011;41384;51.418;7.286;2022-07-25T08:48:18;5.70;;;3.95;;
55539;SDS011;41384;51.418;7.286;2022-07-25T08:50:46;8.15;;;4.63;;
55539;SDS011;41384;51.418;7.286;2022-07-25T08:53:14;7.85;;;5.18;;
55539;SDS011;41384;51.418;7.286;2022-07-25T08:55:42;6.65;;;4.32;;
55539;SDS011;41384;51.418;7.286;2022-07-25T08:58:10;7.97;;;4.53;;
55539;SDS011;41384;51.418;7.286;2022-07-25T09:00:36;6.75;;;4.35;;
55539;SDS011;41384;51.418;7.286;2022-07-25T09:03:02;6.47;;;4.80;;
55539;SDS011;41384;51.418;7.286;2022-07-25T09:05:30;8.35;;;5.00;;
55539;SDS011;41384;51.418;7.286;2022-07-25T09:07:56;7.35;;;4.82;;
55539;SDS011;41384;51.418;7.286;2022-07-25T09:10:29;8.95;;;4.93;;
55539;SDS011;41384;51.418;7.286;2022-07-25T09:12:56;6.35;;;4.80;;
55539;SDS011;41384;51.418;7.286;2022-07-25T09:15:36;6.95;;;4.82;;
55539;SDS011;41384;51.418;7.286;2022-07-25T09:18:05;5.03;;;4.20;;
55539;SDS011;41384;51.418;7.286;2022-07-25T09:20:42;7.13;;;4.65;;
55539;SDS011;41384;51.418;7.286;2022-07-25T09:23:08;6.10;;;4.82;;
55539;SDS011;41384;51.418;7.286;2022-07-25T09:25:37;7.20;;;4.88;;
55539;SDS011;41384;51.418;7.286;2022-07-25T09:28:12;5.68;;;5.03;;
55539;SDS011;41384;51.418;7.286;2022-07-25T09:30:39;6.70;;;4.85;;
55539;SDS011;41384;51.418;7.286;2022-07-25T09:33:05;7.32;;;5.03;;
55539;SDS011;41384;51.418;7.286;2022-07-25T09:35:31;6.43;;;5.07;;
55539;SDS011;41384;51.418;7.286;2022-07-25T09:38:12;6.95;;;4.93;;
55539;SDS011;41384;51.418;7.286;2022-07-25T09:40:40;8.52;;;5.18;;
55539;SDS011;41384;51.418;7.286;2022-07-25T09:43:06;8.77;;;5.03;;
55539;SDS011;41384;51.418;7.286;2022-07-25T09:45:33;8.23;;;5.20;;
55539;SDS011;41384;51.418;7.286;2022-07-25T09:48:02;8.48;;;5.13;;
55539;SDS011;41384;51.418;7.286;2022-07-25T09:50:30;6.85;;;4.68;;
55539;SDS011;41384;51.418;7.286;2022-07-25T09:52:57;8.55;;;4.68;;
55539;SDS011;41384;51.418;7.286;2022-07-25T09:55:25;7.78;;;4.72;;
55539;SDS011;41384;51.418;7.286;2022-07-25T09:57:51;7.82;;;6.07;;
55539;SDS011;41384;51.418;7.286;2022-07-25T10:00:23;7.18;;;5.13;;
55539;SDS011;41384;51.418;7.286;2022-07-25T10:05:29;8.27;;;5.18;;
55539;SDS011;41384;51.418;7.286;2022-07-25T10:08:13;8.55;;;5.45;;
55539;SDS011;41384;51.418;7.286;2022-07-25T10:10:39;6.82;;;4.97;;
55539;SDS011;41384;51.418;7.286;2022-07-25T10:15:45;5.65;;;4.90;;
55539;SDS011;41384;51.418;7.286;2022-07-25T10:18:14;7.28;;;4.75;;
55539;SDS011;41384;51.418;7.286;2022-07-25T10:20:42;6.38;;;4.90;;
55539;SDS011;41384;51.418;7.286;2022-07-25T10:23:42;5.65;;;4.25;;
55539;SDS011;41384;51.418;7.286;2022-07-25T10:26:06;5.13;;;4.53;;
55539;SDS011;41384;51.418;7.286;2022-07-25T10:28:38;7.50;;;4.95;;
55539;SDS011;41384;51.418;7.286;2022-07-25T10:31:13;6.20;;;5.07;;
55539;SDS011;41384;51.418;7.286;2022-07-25T10:33:47;7.68;;;4.00;;
55539;SDS011;41384;51.418;7.286;2022-07-25T10:36:15;8.55;;;4.57;;
55539;SDS011;41384;51.418;7.286;2022-07-25T10:38:42;6.30;;;4.55;;
55539;SDS011;41384;51.418;7.286;2022-07-25T10:41:10;6.40;;;4.57;;
55539;SDS011;41384;51.418;7.286;2022-07-25T10:43:37;7.72;;;5.07;;
55539;SDS011;41384;51.418;7.286;2022-07-25T10:46:09;8.93;;;5.47;;
55539;SDS011;41384;51.418;7.286;2022-07-25T10:48:39;6.35;;;4.75;;
55539;SDS011;41384;51.418;7.286;2022-07-25T10:51:07;6.30;;;4.45;;
55539;SDS011;41384;51.418;7.286;2022-07-25T11:01:20;8.55;;;5.55;;
55539;SDS011;41384;51.418;7.286;2022-07-25T11:03:48;9.48;;;5.15;;
55539;SDS011;41384;51.418;7.286;2022-07-25T11:06:15;7.38;;;4.82;;
55539;SDS011;41384;51.418;7.286;2022-07-25T11:08:41;7.05;;;4.93;;
55539;SDS011;41384;51.418;7.286;2022-07-25T11:11:09;8.90;;;4.97;;
55539;SDS011;41384;51.418;7.286;2022-07-25T11:13:36;7.00;;;4.75;;
55539;SDS011;41384;51.418;7.286;2022-07-25T11:16:05;8.07;;;4.63;;
55539;SDS011;41384;51.418;7.286;2022-07-25T11:21:01;5.90;;;5.30;;
55539;SDS011;41384;51.418;7.286;2022-07-25T11:23:27;7.20;;;5.13;;
55539;SDS011;41384;51.418;7.286;2022-07-25T11:26:02;7.07;;;5.47;;
55539;SDS011;41384;51.418;7.286;2022-07-25T11:28:38;9.30;;;5.47;;
55539;SDS011;41384;51.418;7.286;2022-07-25T11:31:09;5.93;;;5.22;;
55539;SDS011;41384;51.418;7.286;2022-07-25T11:33:37;8.52;;;5.00;;
55539;SDS011;41384;51.418;7.286;2022-07-25T11:36:03;6.63;;;5.13;;
55539;SDS011;41384;51.418;7.286;2022-07-25T11:38:29;9.00;;;5.03;;
55539;SDS011;41384;51.418;7.286;2022-07-25T11:40:55;8.63;;;5.50;;
55539;SDS011;41384;51.418;7.286;2022-07-25T11:43:21;9.52;;;5.07;;
55539;SDS011;41384;51.418;7.286;2022-07-25T11:45:58;9.07;;;5.55;;
55539;SDS011;41384;51.418;7.286;2022-07-25T11:48:34;7.38;;;5.50;;
55539;SDS011;41384;51.418;7.286;2022-07-25T11:51:14;8.32;;;5.45;;
55539;SDS011;41384;51.418;7.286;2022-07-25T11:53:42;8.43;;;5.03;;
55539;SDS011;41384;51.418;7.286;2022-07-25T11:56:14;5.57;;;5.00;;
55539;SDS011;41384;51.418;7.286;2022-07-25T11:58:42;7.65;;;5.32;;
55539;SDS011;41384;51.418;7.286;2022-07-25T12:01:12;8.38;;;4.82;;
55539;SDS011;41384;51.418;7.286;2022-07-25T12:03:38;7.10;;;5.07;;
55539;SDS011;41384;51.418;7.286;2022-07-25T12:06:08;5.93;;;4.72;;
55539;SDS011;41384;51.418;7.286;2022-07-25T12:08:39;6.18;;;4.65;;
55539;SDS011;41384;51.418;7.286;2022-07-25T12:11:20;4.73;;;3.90;;
55539;SDS011;41384;51.418;7.286;2022-07-25T12:13:47;7.38;;;3.65;;
55539;SDS011;41384;51.418;7.286;2022-07-25T12:16:13;3.50;;;3.00;;
55539;SDS011;41384;51.418;7.286;2022-07-25T12:18:40;4.28;;;2.75;;
55539;SDS011;41384;51.418;7.286;2022-07-25T12:21:05;5.07;;;2.92;;
55539;SDS011;41384;51.418;7.286;2022-07-25T12:23:30;4.45;;;3.67;;
55539;SDS011;41384;51.418;7.286;2022-07-25T12:25:56;3.85;;;2.90;;
55539;SDS011;41384;51.418;7.286;2022-07-25T12:28:21;4.05;;;2.80;;
55539;SDS011;41384;51.418;7.286;2022-07-25T12:30:47;5.22;;;3.00;;
55539;SDS011;41384;51.418;7.286;2022-07-25T12:33:13;3.45;;;2.75;;
55539;SDS011;41384;51.418;7.286;2022-07-25T12:35:40;5.45;;;3.08;;
55539;SDS011;41384;51.418;7.286;2022-07-25T12:38:06;3.55;;;2.90;;
55539;SDS011;41384;51.418;7.286;2022-07-25T12:40:32;6.30;;;3.20;;
55539;SDS011;41384;51.418;7.286;2022-07-25T12:42:57;3.20;;;2.80;;
55539;SDS011;41384;51.418;7.286;2022-07-25T12:45:23;4.97;;;2.92;;
55539;SDS011;41384;51.418;7.286;2022-07-25T12:47:49;4.97;;;2.72;;
55539;SDS011;41384;51.418;7.286;2022-07-25T12:50:14;5.10;;;2.70;;
55539;SDS011;41384;51.418;7.286;2022-07-25T12:52:40;4.28;;;3.03;;
55539;SDS011;41384;51.418;7.286;2022-07-25T12:55:07;4.55;;;3.17;;
55539;SDS011;41384;51.418;7.286;2022-07-25T12:57:35;4.57;;;2.75;;
55539;SDS011;41384;51.418;7.286;2022-07-25T13:00:00;4.95;;;2.80;;
55539;SDS011;41384;51.418;7.286;2022-07-25T13:02:27;4.93;;;3.25;;
55539;SDS011;41384;51.418;7.286;2022-07-25T13:04:52;3.92;;;2.85;;
55539;SDS011;41384;51.418;7.286;2022-07-25T13:07:17;6.28;;;3.00;;
55539;SDS011;41384;51.418;7.286;2022-07-25T13:09:43;4.15;;;2.75;;
55539;SDS011;41384;51.418;7.286;2022-07-25T13:12:08;3.33;;;2.45;;
55539;SDS011;41384;51.418;7.286;2022-07-25T13:14:33;3.63;;;2.67;;
55539;SDS011;41384;51.418;7.286;2022-07-25T13:16:59;3.50;;;2.67;;
55539;SDS011;41384;51.418;7.286;2022-07-25T13:19:24;5.70;;;2.35;;
55539;SDS011;41384;51.418;7.286;2022-07-25T13:21:49;4.20;;;2.28;;
55539;SDS011;41384;51.418;7.286;2022-07-25T13:24:15;4.88;;;2.70;;
55539;SDS011;41384;51.418;7.286;2022-07-25T13:26:40;4.40;;;2.85;;
55539;SDS011;41384;51.418;7.286;2022-07-25T13:29:05;3.47;;;2.53;;
55539;SDS011;41384;51.418;7.286;2022-07-25T13:31:35;5.15;;;2.50;;
55539;SDS011;41384;51.418;7.286;2022-07-25T13:34:02;4.65;;;2.55;;
55539;SDS011;41384;51.418;7.286;2022-07-25T13:36:27;7.45;;;2.97;;
55539;SDS011;41384;51.418;7.286;2022-07-25T13:38:52;5.10;;;2.65;;
55539;SDS011;41384;51.418;7.286;2022-07-25T13:41:18;4.93;;;2.60;;
55539;SDS011;41384;51.418;7.286;2022-07-25T13:43:43;7.28;;;2.60;;
55539;SDS011;41384;51.418;7.286;2022-07-25T13:46:08;6.00;;;2.70;;
55539;SDS011;41384;51.418;7.286;2022-07-25T13:48:34;5.05;;;2.30;;
55539;SDS011;41384;51.418;7.286;2022-07-25T13:51:00;3.83;;;2.22;;
55539;SDS011;41384;51.418;7.286;2022-07-25T13:53:25;5.95;;;2.40;;
55539;SDS011;41384;51.418;7.286;2022-07-25T13:55:51;6.43;;;2.35;;
55539;SDS011;41384;51.418;7.286;2022-07-25T13:58:16;5.32;;;2.47;;
55539;SDS011;41384;51.418;7.286;2022-07-25T14:00:42;3.05;;;2.28;;
55539;SDS011;41384;51.418;7.286;2022-07-25T14:03:07;6.55;;;2.53;;
55539;SDS011;41384;51.418;7.286;2022-07-25T14:05:33;6.78;;;2.35;;
55539;SDS011;41384;51.418;7.286;2022-07-25T14:07:58;3.70;;;2.45;;
55539;SDS011;41384;51.418;7.286;2022-07-25T14:10:24;4.10;;;2.30;;
55539;SDS011;41384;51.418;7.286;2022-07-25T14:12:49;3.65;;;2.17;;
55539;SDS011;41384;51.418;7.286;2022-07-25T14:15:14;4.07;;;2.25;;
55539;SDS011;41384;51.418;7.286;2022-07-25T14:17:39;4.40;;;1.90;;
55539;SDS011;41384;51.418;7.286;2022-07-25T14:20:05;6.55;;;2.25;;
55539;SDS011;41384;51.418;7.286;2022-07-25T14:22:31;7.03;;;2.25;;
55539;SDS011;41384;51.418;7.286;2022-07-25T14:24:57;5.35;;;1.85;;
55539;SDS011;41384;51.418;7.286;2022-07-25T14:27:22;4.60;;;1.85;;
55539;SDS011;41384;51.418;7.286;2022-07-25T14:29:48;3.80;;;1.67;;
55539;SDS011;41384;51.418;7.286;2022-07-25T14:32:13;2.53;;;1.75;;
55539;SDS011;41384;51.418;7.286;2022-07-25T14:34:38;4.80;;;1.90;;
55539;SDS011;41384;51.418;7.286;2022-07-25T14:37:04;7.22;;;2.00;;
55539;SDS011;41384;51.418;7.286;2022-07-25T14:39:31;3.78;;;1.65;;
55539;SDS011;41384;51.418;7.286;2022-07-25T14:41:56;5.03;;;1.75;;
55539;SDS011;41384;51.418;7.286;2022-07-25T14:44:23;2.10;;;1.60;;
55539;SDS011;41384;51.418;7.286;2022-07-25T14:46:50;2.78;;;1.75;;
55539;SDS011;41384;51.418;7.286;2022-07-25T14:49:16;4.90;;;1.88;;
55539;SDS011;41384;51.418;7.286;2022-07-25T14:51:41;3.65;;;1.60;;
55539;SDS011;41384;51.418;7.286;2022-07-25T14:54:09;2.78;;;1.80;;
55539;SDS011;41384;51.418;7.286;2022-07-25T14:56:35;3.20;;;1.80;;
55539;SDS011;41384;51.418;7.286;2022-07-25T14:59:00;3.45;;;1.60;;